createdAt,value
2018-12-25T00:00:18.076Z,86.20
2018-12-25T00:02:46.239Z,85.30
2018-12-25T00:05:16.362Z,84.60
2018-12-25T00:07:44.511Z,85.40
2018-12-25T00:10:12.709Z,85.20
2018-12-25T00:12:40.880Z,84.60
2018-12-25T00:15:10.018Z,84.00
2018-12-25T00:17:38.246Z,86.20
2018-12-25T00:20:06.456Z,86.40
2018-12-25T00:22:34.586Z,84.80
2018-12-25T00:25:02.786Z,83.60
2018-12-25T00:27:30.936Z,83.00
2018-12-25T00:29:59.118Z,82.90
2018-12-25T00:32:27.277Z,83.20
2018-12-25T00:34:55.459Z,82.70
2018-12-25T00:37:23.635Z,82.80
2018-12-25T00:39:51.802Z,83.00
2018-12-25T00:42:19.970Z,82.90
2018-12-25T00:44:48.202Z,81.80
2018-12-25T00:47:16.322Z,81.40
2018-12-25T00:49:44.537Z,83.00
2018-12-25T00:52:12.928Z,83.60
2018-12-25T00:54:41.071Z,83.60
2018-12-25T00:57:09.237Z,83.10
2018-12-25T00:59:37.399Z,83.40
2018-12-25T01:02:05.636Z,82.10
2018-12-25T01:04:33.742Z,81.50
2018-12-25T01:07:01.919Z,80.60
2018-12-25T01:09:31.116Z,81.60
2018-12-25T01:11:59.294Z,82.60
2018-12-25T01:14:27.444Z,82.30
2018-12-25T01:16:55.912Z,83.30
2018-12-25T01:19:24.127Z,84.60
2018-12-25T01:21:52.289Z,83.90
2018-12-25T01:24:20.456Z,83.50
2018-12-25T01:26:48.635Z,82.60
2018-12-25T01:29:16.807Z,83.40
2018-12-25T01:31:44.996Z,83.70
2018-12-25T01:34:13.150Z,83.80
2018-12-25T01:36:41.330Z,83.50
2018-12-25T01:39:09.508Z,83.30
2018-12-25T01:41:38.703Z,83.00
2018-12-25T01:44:06.934Z,83.50
2018-12-25T01:46:35.141Z,83.40
2018-12-25T01:49:03.332Z,81.50
2018-12-25T01:51:31.498Z,81.30
2018-12-25T01:53:59.676Z,81.80
2018-12-25T01:56:27.840Z,80.30
2018-12-25T01:58:56.347Z,81.00
2018-12-25T02:01:24.495Z,82.30
2018-12-25T02:03:52.663Z,82.70
2018-12-25T02:06:23.041Z,81.30
2018-12-25T02:08:51.162Z,81.60
2018-12-25T02:11:19.591Z,80.30
2018-12-25T02:13:47.734Z,78.60
2018-12-25T02:16:15.905Z,80.40
2018-12-25T02:18:44.065Z,79.80
2018-12-25T02:21:12.251Z,79.30
2018-12-25T02:23:41.036Z,78.80
2018-12-25T02:26:09.429Z,77.90
2018-12-25T02:28:37.639Z,77.40
2018-12-25T02:31:05.746Z,77.60
2018-12-25T02:33:34.048Z,76.90
2018-12-25T02:36:02.202Z,76.40
2018-12-25T02:38:31.395Z,76.10
2018-12-25T02:40:59.576Z,77.70
2018-12-25T02:43:27.760Z,77.70
2018-12-25T02:45:55.924Z,78.20
2018-12-25T02:48:25.380Z,79.10
2018-12-25T02:50:53.622Z,78.80
2018-12-25T02:53:21.761Z,78.20
2018-12-25T02:55:49.936Z,78.50
2018-12-25T02:58:18.020Z,79.20
2018-12-25T03:00:46.630Z,79.00
2018-12-25T03:03:14.967Z,78.50
2018-12-25T03:05:43.708Z,76.70
2018-12-25T03:08:11.839Z,77.10
2018-12-25T03:10:40.029Z,77.40
2018-12-25T03:13:08.180Z,77.40
2018-12-25T03:15:36.668Z,78.10
2018-12-25T03:18:04.835Z,78.50
2018-12-25T03:20:33.001Z,80.10
2018-12-25T03:23:01.445Z,79.30
2018-12-25T03:25:29.640Z,80.00
2018-12-25T03:27:57.839Z,79.40
2018-12-25T03:30:26.013Z,80.50
2018-12-25T03:32:54.178Z,80.70
2018-12-25T03:35:22.358Z,80.60
2018-12-25T03:37:50.525Z,80.10
2018-12-25T03:40:18.720Z,81.30
2018-12-25T03:42:47.907Z,80.20
2018-12-25T03:45:16.073Z,78.60
2018-12-25T03:47:45.158Z,77.60
2018-12-25T03:50:13.888Z,78.40
2018-12-25T03:52:42.041Z,78.40
2018-12-25T03:55:10.204Z,78.20
2018-12-25T03:57:38.433Z,76.60
2018-12-25T04:00:06.640Z,77.20
2018-12-25T04:02:35.047Z,77.10
2018-12-25T04:05:03.199Z,76.30
2018-12-25T04:07:31.395Z,75.60
2018-12-25T04:09:59.783Z,76.50
2018-12-25T04:12:27.930Z,77.10
2018-12-25T04:14:56.103Z,79.40
2018-12-25T04:17:24.272Z,79.50
2018-12-25T04:19:52.447Z,79.30
2018-12-25T04:22:20.610Z,77.10
2018-12-25T04:24:48.819Z,77.20
2018-12-25T04:27:16.968Z,77.10
2018-12-25T04:29:46.175Z,79.40
2018-12-25T04:32:14.329Z,79.30
2018-12-25T04:34:42.501Z,78.90
2018-12-25T04:37:10.681Z,79.90
2018-12-25T04:39:39.119Z,77.70
2018-12-25T04:42:07.324Z,78.00
2018-12-25T04:44:36.552Z,75.50
2018-12-25T04:47:05.013Z,75.10
2018-12-25T04:49:33.146Z,76.40
2018-12-25T04:52:02.289Z,76.70
2018-12-25T04:54:30.464Z,78.60
2018-12-25T04:56:58.904Z,77.30
2018-12-25T04:59:27.160Z,77.60
2018-12-25T05:01:55.287Z,76.10
2018-12-25T05:04:23.454Z,74.20
2018-12-25T05:06:51.639Z,76.40
2018-12-25T05:09:19.792Z,76.10
2018-12-25T05:11:47.995Z,75.60
2018-12-25T05:14:16.146Z,76.30
2018-12-25T05:16:44.314Z,78.10
2018-12-25T05:19:12.486Z,78.30
2018-12-25T05:21:41.245Z,78.00
2018-12-25T05:24:09.382Z,78.20
2018-12-25T05:26:41.705Z,77.30
2018-12-25T05:29:09.891Z,77.50
2018-12-25T05:31:38.091Z,76.90
2018-12-25T05:34:06.242Z,76.90
2018-12-25T05:36:34.428Z,76.30
2018-12-25T05:39:02.595Z,75.80
2018-12-25T05:41:30.767Z,75.60
2018-12-25T05:43:58.940Z,75.70
2018-12-25T05:46:27.115Z,76.20
2018-12-25T05:48:56.002Z,76.30
2018-12-25T05:51:24.372Z,76.40
2018-12-25T05:53:52.537Z,77.10
2018-12-25T05:56:26.475Z,78.40
2018-12-25T05:58:54.888Z,78.30
2018-12-25T06:01:24.044Z,78.60
2018-12-25T06:03:52.211Z,77.20
2018-12-25T06:06:23.570Z,79.30
2018-12-25T06:08:52.304Z,79.00
2018-12-25T06:11:20.470Z,78.30
2018-12-25T06:13:48.843Z,77.10
2018-12-25T06:16:17.217Z,76.40
2018-12-25T06:18:45.611Z,76.20
2018-12-25T06:21:13.824Z,78.10
2018-12-25T06:23:42.123Z,79.60
2018-12-25T06:26:10.274Z,81.50
2018-12-25T06:28:38.454Z,81.30
2018-12-25T06:31:06.623Z,80.20
2018-12-25T06:33:34.879Z,80.00
2018-12-25T06:36:03.503Z,81.10
2018-12-25T06:38:31.648Z,79.60
2018-12-25T06:40:59.823Z,77.90
2018-12-25T06:43:28.014Z,76.40
2018-12-25T06:45:56.470Z,76.80
2018-12-25T06:48:24.924Z,77.10
2018-12-25T06:50:53.030Z,78.00
2018-12-25T06:53:21.123Z,78.20
2018-12-25T06:55:49.276Z,76.70
2018-12-25T06:58:17.450Z,76.40
2018-12-25T07:00:45.901Z,76.00
2018-12-25T07:03:14.113Z,76.10
2018-12-25T07:05:42.302Z,76.80
2018-12-25T07:08:10.466Z,76.80
2018-12-25T07:10:38.889Z,77.50
2018-12-25T07:13:07.113Z,77.70
2018-12-25T07:15:35.340Z,77.20
2018-12-25T07:18:03.561Z,77.10
2018-12-25T07:20:31.732Z,76.80
2018-12-25T07:22:59.892Z,77.80
2018-12-25T07:25:28.068Z,78.00
2018-12-25T07:27:56.475Z,77.80
2018-12-25T07:30:24.627Z,77.90
2018-12-25T07:32:52.790Z,78.20
2018-12-25T07:35:20.964Z,79.00
2018-12-25T07:37:49.148Z,76.90
2018-12-25T07:40:17.525Z,77.60
2018-12-25T07:42:45.695Z,77.40
2018-12-25T07:45:14.896Z,77.30
2018-12-25T07:47:43.075Z,79.00
2018-12-25T07:50:11.243Z,78.60
2018-12-25T07:52:39.413Z,79.10
2018-12-25T07:55:07.584Z,78.80
2018-12-25T07:57:35.758Z,76.40
2018-12-25T08:00:04.322Z,75.60
2018-12-25T08:02:32.526Z,75.50
2018-12-25T08:05:00.713Z,77.00
2018-12-25T08:07:28.867Z,75.10
2018-12-25T08:09:57.348Z,76.40
2018-12-25T08:12:25.509Z,76.80
2018-12-25T08:14:53.690Z,77.00
2018-12-25T08:17:21.873Z,77.80
2018-12-25T08:19:50.270Z,78.30
2018-12-25T08:22:18.418Z,78.10
2018-12-25T08:24:46.598Z,78.90
2018-12-25T08:27:14.772Z,79.90
2018-12-25T08:29:42.932Z,78.70
2018-12-25T08:32:11.110Z,77.80
2018-12-25T08:34:40.304Z,76.50
2018-12-25T08:37:08.486Z,76.00
2018-12-25T08:39:36.663Z,77.10
2018-12-25T08:42:04.850Z,76.10
2018-12-25T08:44:32.992Z,76.80
2018-12-25T08:47:02.490Z,76.60
2018-12-25T08:49:29.349Z,76.10
2018-12-25T08:51:58.538Z,75.60
2018-12-25T08:54:27.986Z,74.10
2018-12-25T08:56:56.110Z,73.50
2018-12-25T08:59:24.239Z,73.10
2018-12-25T09:01:52.594Z,73.50
2018-12-25T09:04:21.046Z,76.70
2018-12-25T09:06:49.239Z,77.80
2018-12-25T09:09:17.401Z,77.60
2018-12-25T09:11:45.563Z,77.60
2018-12-25T09:14:13.774Z,75.80
2018-12-25T09:16:41.908Z,76.60
2018-12-25T09:19:10.092Z,77.60
2018-12-25T09:21:46.113Z,78.00
2018-12-25T09:24:06.548Z,76.90
2018-12-25T09:26:34.740Z,77.50
2018-12-25T09:29:03.034Z,78.10
2018-12-25T09:31:32.193Z,77.50
2018-12-25T09:34:00.372Z,76.70
2018-12-25T09:36:28.778Z,76.90
2018-12-25T09:38:56.902Z,77.30
2018-12-25T09:41:25.074Z,76.00
2018-12-25T09:43:53.559Z,74.70
2018-12-25T09:46:21.738Z,73.50
2018-12-25T09:48:50.021Z,74.60
2018-12-25T09:51:20.147Z,73.30
2018-12-25T09:53:47.557Z,73.30
2018-12-25T09:56:16.167Z,72.60
2018-12-25T09:58:44.421Z,71.50
2018-12-25T10:01:12.511Z,70.90
2018-12-25T10:03:40.682Z,72.10
2018-12-25T10:06:08.874Z,70.30
2018-12-25T10:08:37.039Z,71.10
2018-12-25T10:11:05.220Z,72.20
2018-12-25T10:13:33.395Z,71.50
2018-12-25T10:16:01.560Z,70.10
2018-12-25T10:18:29.723Z,70.20
2018-12-25T10:20:57.946Z,71.20
2018-12-25T10:23:26.105Z,71.10
2018-12-25T10:25:56.070Z,70.40
2018-12-25T10:28:22.450Z,70.20
2018-12-25T10:30:50.608Z,71.40
2018-12-25T10:33:19.019Z,71.20
2018-12-25T10:35:55.236Z,71.30
2018-12-25T10:38:26.217Z,69.40
2018-12-25T10:40:54.613Z,70.30
2018-12-25T10:43:22.829Z,70.90
2018-12-25T10:45:51.018Z,70.30
2018-12-25T10:49:01.299Z,70.00
2018-12-25T10:51:29.467Z,70.40
2018-12-25T10:53:58.132Z,69.50
2018-12-25T10:56:26.301Z,70.50
2018-12-25T10:58:54.483Z,71.30
2018-12-25T11:01:27.583Z,71.60
2018-12-25T11:04:03.703Z,71.20
2018-12-25T11:06:31.910Z,70.30
2018-12-25T11:09:00.232Z,70.50
2018-12-25T11:11:28.540Z,70.50
2018-12-25T11:13:57.485Z,71.60
2018-12-25T11:16:25.644Z,70.00
2018-12-25T11:18:54.054Z,77.00
2018-12-25T11:21:22.292Z,70.10
2018-12-25T11:23:50.473Z,70.70
2018-12-25T11:26:20.930Z,71.50
2018-12-25T11:28:49.455Z,69.80
2018-12-25T11:31:17.643Z,69.30
2018-12-25T11:33:45.786Z,69.20
2018-12-25T11:36:13.972Z,69.40
2018-12-25T11:38:44.723Z,69.70
2018-12-25T11:41:12.981Z,69.60
2018-12-25T11:43:41.257Z,68.80
2018-12-25T11:46:09.551Z,68.10
2018-12-25T11:48:37.732Z,67.70
2018-12-25T11:51:05.868Z,67.70
2018-12-25T11:53:38.667Z,67.60
2018-12-25T11:56:08.232Z,67.10
2018-12-25T11:58:35.147Z,68.30
2018-12-25T12:01:04.023Z,69.20
2018-12-25T12:03:32.219Z,68.90
2018-12-25T12:06:00.379Z,68.90
2018-12-25T12:08:28.518Z,71.00
2018-12-25T12:10:56.986Z,70.10
2018-12-25T12:13:25.179Z,70.40
2018-12-25T12:15:53.360Z,70.20
2018-12-25T12:18:21.511Z,70.30
2018-12-25T12:20:50.721Z,69.90
2018-12-25T12:23:18.884Z,69.60
2018-12-25T12:25:47.070Z,70.40
2018-12-25T12:28:15.575Z,69.20
2018-12-25T12:30:43.717Z,69.00
2018-12-25T12:33:16.579Z,69.00
2018-12-25T12:35:46.685Z,69.50
2018-12-25T12:38:14.062Z,70.10
2018-12-25T12:40:42.192Z,69.60
2018-12-25T12:43:10.317Z,69.70
2018-12-25T12:45:38.527Z,70.50
2018-12-25T12:48:06.770Z,70.30
2018-12-25T12:50:34.954Z,70.00
2018-12-25T12:53:03.109Z,70.00
2018-12-25T12:55:31.296Z,70.00
2018-12-25T12:57:59.728Z,70.00
2018-12-25T13:00:28.880Z,69.80
2018-12-25T13:02:57.028Z,69.20
2018-12-25T13:05:25.220Z,69.70
2018-12-25T13:07:53.431Z,69.90
2018-12-25T13:10:21.559Z,70.70
2018-12-25T13:12:50.275Z,69.60
2018-12-25T13:15:18.408Z,70.30
2018-12-25T13:17:46.589Z,70.90
2018-12-25T13:20:14.762Z,71.00
2018-12-25T13:22:43.239Z,70.90
2018-12-25T13:25:11.415Z,72.00
2018-12-25T13:27:39.602Z,72.00
2018-12-25T13:30:09.197Z,71.50
2018-12-25T13:32:37.378Z,72.20
2018-12-25T13:35:05.540Z,72.20
2018-12-25T13:37:33.717Z,71.80
2018-12-25T13:40:01.922Z,71.00
2018-12-25T13:42:30.083Z,71.10
2018-12-25T13:44:58.229Z,71.10
2018-12-25T13:47:26.461Z,71.80
2018-12-25T13:49:54.580Z,70.80
2018-12-25T13:52:22.768Z,70.80
2018-12-25T13:54:50.951Z,70.90
2018-12-25T13:57:19.111Z,72.20
2018-12-25T13:59:47.276Z,72.80
2018-12-25T14:02:41.430Z,72.20
2018-12-25T14:05:19.703Z,71.50
2018-12-25T14:07:58.408Z,71.20
2018-12-25T14:10:42.934Z,70.20
2018-12-25T14:13:21.163Z,70.00
2018-12-25T14:15:49.373Z,70.70
2018-12-25T14:18:17.543Z,71.20
2018-12-25T14:20:46.717Z,72.10
2018-12-25T14:23:14.890Z,71.40
2018-12-25T14:25:43.041Z,72.30
2018-12-25T14:28:11.702Z,73.30
2018-12-25T14:30:39.889Z,72.30
2018-12-25T14:33:09.101Z,72.60
2018-12-25T14:35:37.286Z,72.20
2018-12-25T14:38:05.501Z,72.90
2018-12-25T14:40:33.740Z,72.10
2018-12-25T14:43:01.916Z,71.20
2018-12-25T14:45:30.082Z,71.20
2018-12-25T14:47:59.281Z,74.50
2018-12-25T14:50:34.260Z,78.40
2018-12-25T14:53:03.453Z,78.10
2018-12-25T14:55:34.759Z,75.20
2018-12-25T14:58:02.940Z,75.20
2018-12-25T15:00:35.209Z,72.10
2018-12-25T15:03:03.381Z,73.00
2018-12-25T15:05:32.553Z,73.50
2018-12-25T15:08:00.717Z,77.90
2018-12-25T15:10:28.855Z,71.30
2018-12-25T15:12:57.091Z,69.70
2018-12-25T15:15:39.279Z,70.30
2018-12-25T15:18:09.377Z,71.60
2018-12-25T15:20:38.705Z,70.90
2018-12-25T15:23:08.074Z,70.30
2018-12-25T15:25:36.295Z,70.20
2018-12-25T15:28:04.431Z,70.50
2018-12-25T15:30:32.887Z,72.00
2018-12-25T15:33:01.102Z,72.60
2018-12-25T15:35:29.274Z,71.70
2018-12-25T15:37:57.446Z,72.40
2018-12-25T15:40:25.680Z,72.70
2018-12-25T15:42:54.818Z,71.90
2018-12-25T15:45:23.079Z,72.40
2018-12-25T15:47:51.302Z,73.50
2018-12-25T15:50:41.387Z,72.90
2018-12-25T15:56:37.439Z,73.10
2018-12-25T15:59:05.569Z,73.20
2018-12-25T16:01:37.351Z,73.60
2018-12-25T16:04:05.493Z,72.80
2018-12-25T16:06:33.675Z,72.30
2018-12-25T16:09:01.822Z,73.50
2018-12-25T16:11:30.035Z,72.50
2018-12-25T16:14:00.249Z,72.90
2018-12-25T16:16:28.414Z,73.20
2018-12-25T16:18:56.577Z,73.20
2018-12-25T16:21:32.091Z,73.50
2018-12-25T16:24:06.997Z,73.50
2018-12-25T16:26:38.775Z,73.80
2018-12-25T16:29:06.953Z,73.50
2018-12-25T16:31:36.081Z,74.20
2018-12-25T16:34:04.251Z,73.80
2018-12-25T16:36:32.451Z,75.40
2018-12-25T16:39:00.611Z,75.20
2018-12-25T16:41:28.773Z,75.20
2018-12-25T16:43:57.249Z,74.70
2018-12-25T16:46:25.658Z,74.30
2018-12-25T16:48:54.017Z,74.10
2018-12-25T16:51:22.487Z,74.30
2018-12-25T16:53:53.739Z,74.80
2018-12-25T16:56:19.119Z,74.70
2018-12-25T16:58:54.085Z,74.50
2018-12-25T17:01:22.307Z,75.20
2018-12-25T17:03:50.429Z,75.50
2018-12-25T17:06:19.614Z,74.60
2018-12-25T17:08:48.051Z,74.90
2018-12-25T17:11:16.183Z,75.10
2018-12-25T17:13:44.365Z,74.70
2018-12-25T17:16:12.515Z,74.20
2018-12-25T17:18:40.695Z,74.50
2018-12-25T17:21:08.862Z,74.90
2018-12-25T17:23:37.041Z,74.20
2018-12-25T17:26:05.517Z,75.40
2018-12-25T17:28:33.929Z,75.20
2018-12-25T17:31:02.093Z,75.00
2018-12-25T17:33:31.267Z,74.60
2018-12-25T17:36:00.470Z,74.60
2018-12-25T17:38:28.655Z,74.10
2018-12-25T17:40:58.916Z,74.10
2018-12-25T17:43:27.522Z,74.00
2018-12-25T17:45:55.751Z,73.50
2018-12-25T17:48:25.540Z,74.00
2018-12-25T17:50:54.673Z,73.80
2018-12-25T17:53:22.788Z,74.20
2018-12-25T17:55:53.195Z,74.80
2018-12-25T17:58:24.239Z,74.80
2018-12-25T18:00:50.710Z,74.80
2018-12-25T18:03:19.379Z,73.60
2018-12-25T18:05:48.603Z,73.50
2018-12-25T18:08:16.773Z,74.30
2018-12-25T18:10:46.226Z,73.90
2018-12-25T18:13:15.415Z,73.60
2018-12-25T18:15:44.595Z,73.60
2018-12-25T18:18:13.047Z,73.50
2018-12-25T18:20:41.228Z,74.20
2018-12-25T18:23:10.420Z,74.30
2018-12-25T18:25:38.621Z,74.20
2018-12-25T18:28:13.389Z,75.20
2018-12-25T18:30:49.179Z,74.80
2018-12-25T18:33:25.881Z,74.70
2018-12-25T18:36:00.028Z,74.70
2018-12-25T18:38:36.745Z,74.60
2018-12-25T18:41:13.801Z,74.80
2018-12-25T18:43:53.463Z,76.40
2018-12-25T18:46:33.859Z,76.40
2018-12-25T18:49:04.974Z,75.10
2018-12-25T18:51:33.121Z,75.10
2018-12-25T18:54:01.315Z,74.60
2018-12-25T18:56:29.841Z,73.80
2018-12-25T18:59:03.791Z,73.60
2018-12-25T19:01:31.967Z,74.10
2018-12-25T19:04:00.151Z,74.30
2018-12-25T19:06:28.396Z,74.40
2018-12-25T19:08:58.840Z,75.20
2018-12-25T19:11:27.467Z,76.90
2018-12-25T19:13:55.707Z,76.30
2018-12-25T19:16:24.298Z,76.10
2018-12-25T19:18:52.440Z,75.90
2018-12-25T19:21:21.677Z,75.20
2018-12-25T19:23:59.051Z,75.20
2018-12-25T19:26:27.211Z,75.50
2018-12-25T19:28:55.653Z,75.50
2018-12-25T19:31:24.256Z,76.30
2018-12-25T19:33:52.447Z,75.80
2018-12-25T19:36:20.640Z,77.30
2018-12-25T19:38:48.790Z,77.40
2018-12-25T19:41:16.962Z,77.00
2018-12-25T19:43:45.135Z,76.50
2018-12-25T19:46:13.306Z,77.00
2018-12-25T19:48:41.485Z,77.00
2018-12-25T19:51:09.678Z,77.30
2018-12-25T19:53:37.828Z,77.70
2018-12-25T19:56:06.531Z,77.90
2018-12-25T19:58:34.691Z,78.40
2018-12-25T20:01:02.881Z,78.10
2018-12-25T20:03:40.796Z,78.00
2018-12-25T20:06:39.781Z,78.50
2018-12-25T20:10:03.774Z,78.50
2018-12-25T20:13:09.709Z,77.30
2018-12-25T20:16:15.429Z,75.90
2018-12-25T20:18:58.078Z,75.60
2018-12-25T20:21:57.098Z,75.80
2018-12-25T20:25:05.648Z,75.90
2018-12-25T20:28:17.827Z,76.30
2018-12-25T20:31:22.401Z,75.30
2018-12-25T20:34:22.885Z,75.30
2018-12-25T20:37:55.452Z,75.30
2018-12-25T20:41:00.350Z,75.30
2018-12-25T20:44:32.873Z,76.10
2018-12-25T20:47:30.970Z,76.40
2018-12-25T20:50:34.735Z,75.90
2018-12-25T20:53:39.159Z,76.60
2018-12-25T20:56:47.818Z,76.40
2018-12-25T20:59:48.174Z,77.00
2018-12-25T21:03:09.210Z,77.00
2018-12-25T21:06:31.216Z,77.00
2018-12-25T21:09:55.129Z,78.40
2018-12-25T21:13:12.451Z,78.20
2018-12-25T21:16:15.736Z,77.90
2018-12-25T21:19:18.468Z,78.10
2018-12-25T21:22:25.276Z,78.90
2018-12-25T21:25:31.992Z,78.10
2018-12-25T21:28:07.990Z,80.40
2018-12-25T21:30:40.967Z,80.00
2018-12-25T21:33:11.204Z,79.40
2018-12-25T21:35:40.774Z,78.80
2018-12-25T21:38:08.904Z,77.40
2018-12-25T21:40:39.137Z,76.90
2018-12-25T21:43:16.222Z,77.30
2018-12-25T21:45:44.647Z,77.60
2018-12-25T21:48:13.143Z,78.20
2018-12-25T21:50:42.001Z,78.20
2018-12-25T21:53:13.023Z,78.30
2018-12-25T21:55:55.273Z,78.40
2018-12-25T21:58:23.191Z,78.20
2018-12-25T22:00:51.482Z,78.80
2018-12-25T22:03:25.136Z,79.30
2018-12-25T22:05:55.488Z,79.40
2018-12-25T22:08:25.716Z,78.50
2018-12-25T22:10:53.959Z,78.80
2018-12-25T22:13:23.100Z,79.90
2018-12-25T22:15:51.329Z,79.30
2018-12-25T22:18:20.463Z,78.70
2018-12-25T22:20:51.778Z,78.90
2018-12-25T22:23:19.983Z,78.30
2018-12-25T22:25:48.404Z,77.50
2018-12-25T22:28:16.798Z,77.70
2018-12-25T22:30:45.187Z,77.70
2018-12-25T22:33:17.315Z,76.90
2018-12-25T22:35:45.450Z,76.70
2018-12-25T22:38:13.873Z,77.20
2018-12-25T22:40:41.992Z,77.70
2018-12-25T22:43:10.185Z,77.70
2018-12-25T22:45:38.586Z,77.40
2018-12-25T22:48:06.757Z,77.60
2018-12-25T22:50:34.922Z,76.90
2018-12-25T22:53:03.072Z,77.00
2018-12-25T22:55:35.725Z,77.20
2018-12-25T22:57:59.726Z,78.00
2018-12-25T23:00:27.913Z,78.10
2018-12-25T23:02:56.075Z,78.20
2018-12-25T23:05:26.005Z,78.30
2018-12-25T23:07:54.557Z,76.90
2018-12-25T23:10:22.950Z,77.00
2018-12-25T23:12:51.141Z,75.60
2018-12-25T23:15:19.324Z,76.10
2018-12-25T23:17:48.728Z,75.90
2018-12-25T23:20:17.144Z,74.80
2018-12-25T23:22:45.755Z,73.60
2018-12-25T23:25:13.943Z,73.70
2018-12-25T23:27:42.123Z,72.80
2018-12-25T23:30:10.308Z,72.70
2018-12-25T23:32:38.481Z,72.80
2018-12-25T23:35:07.756Z,72.80
2018-12-25T23:37:35.816Z,72.80
2018-12-25T23:40:06.018Z,73.10
2018-12-25T23:42:34.844Z,75.10
2018-12-25T23:45:03.119Z,75.40
2018-12-25T23:47:31.556Z,76.20
2018-12-25T23:50:00.702Z,76.90
2018-12-25T23:52:28.863Z,76.40
2018-12-25T23:54:58.990Z,76.60
2018-12-25T23:57:26.208Z,76.90
2018-12-25T23:59:54.420Z,78.60
